Time;durP1;ratioP1;P1;durP2;ratioP2;P2;SDS_P1;SDS_P2;PMS_P1;PMS_P2;Temp;Humidity;BMP_temperature;BMP_pressure;BME280_temperature;BME280_humidity;BME280_pressure;Samples;Min_cycle;Max_cycle;Signal;HPM_P1;HPM_P2
2022/05/31 00:00:15;;;;;;;4.55;3.42;;;5.90;99.90;;;;;;5022224;28;20433;-92
2022/05/31 00:02:42;;;;;;;5.88;4.43;;;5.80;99.90;;;;;;5022469;28;20029;-92
2022/05/31 00:05:09;;;;;;;3.83;3.50;;;5.80;99.90;;;;;;5014230;28;20072;-91
2022/05/31 00:07:39;;;;;;;3.60;3.20;;;5.80;99.90;;;;;;5024727;28;20025;-92
2022/05/31 00:10:06;;;;;;;4.10;3.75;;;5.80;99.90;;;;;;5007810;28;20025;-92
2022/05/31 00:12:32;;;;;;;4.18;3.25;;;5.80;99.90;;;;;;5009827;28;20026;-91
2022/05/31 00:14:58;;;;;;;4.57;3.58;;;5.80;99.90;;;;;;5017900;28;20124;-91
2022/05/31 00:17:24;;;;;;;4.53;3.22;;;5.70;99.90;;;;;;5014000;28;20025;-91
2022/05/31 00:19:50;;;;;;;3.72;3.42;;;5.80;99.90;;;;;;5019677;28;20076;-92
2022/05/31 00:22:19;;;;;;;6.18;4.22;;;5.70;99.90;;;;;;5021232;28;20453;-92
2022/05/31 00:24:45;;;;;;;4.72;4.18;;;5.70;99.90;;;;;;5029940;28;20052;-92
2022/05/31 00:27:13;;;;;;;5.28;4.00;;;5.60;99.90;;;;;;4999450;28;20049;-92
2022/05/31 00:29:39;;;;;;;3.58;3.22;;;5.60;99.90;;;;;;5002931;28;20026;-92
2022/05/31 00:32:08;;;;;;;4.00;3.55;;;5.50;99.90;;;;;;5017144;28;20539;-92
2022/05/31 00:34:35;;;;;;;5.03;3.22;;;5.50;99.90;;;;;;5008004;28;20639;-92
2022/05/31 00:37:02;;;;;;;5.03;4.15;;;5.40;99.90;;;;;;5009740;28;20117;-92
2022/05/31 00:39:27;;;;;;;3.83;3.47;;;5.40;99.90;;;;;;5006313;28;20090;-92
2022/05/31 00:42:21;;;;;;;11.35;4.47;;;5.40;99.90;;;;;;5003676;28;20109;-91
2022/05/31 00:44:48;;;;;;;3.95;3.50;;;5.30;99.90;;;;;;5011190;28;20032;-92
2022/05/31 00:47:31;;;;;;;3.90;3.50;;;5.30;99.90;;;;;;5017190;28;20021;-92
2022/05/31 00:50:06;;;;;;;3.40;3.10;;;5.30;99.90;;;;;;5002769;28;20032;-92
2022/05/31 00:52:38;;;;;;;4.03;3.70;;;5.20;99.90;;;;;;5023021;28;20017;-92
2022/05/31 00:55:12;;;;;;;4.47;3.65;;;5.20;99.90;;;;;;5010704;28;20020;-92
2022/05/31 00:57:43;;;;;;;3.85;3.30;;;5.10;99.90;;;;;;5011537;28;20021;-91
2022/05/31 01:00:10;;;;;;;;;;;5.10;99.90;;;;;;5013642;28;20025;-94
2022/05/31 01:02:37;;;;;;;6.05;3.50;;;5.00;99.90;;;;;;5005233;28;19949;-93
2022/05/31 01:05:05;;;;;;;4.80;4.40;;;4.90;99.90;;;;;;5000656;28;20025;-92
2022/05/31 01:07:32;;;;;;;4.32;3.92;;;4.90;99.90;;;;;;5008055;28;20458;-92
2022/05/31 01:09:57;;;;;;;5.78;4.43;;;4.80;99.90;;;;;;5011654;28;20101;-91
2022/05/31 01:12:24;;;;;;;5.45;4.95;;;4.80;99.90;;;;;;5001272;28;20053;-91
2022/05/31 01:14:50;;;;;;;5.68;5.18;;;4.80;99.90;;;;;;5022556;28;20065;-93
2022/05/31 01:17:24;;;;;;;4.75;4.32;;;4.80;99.90;;;;;;5026065;28;20025;-92
2022/05/31 01:19:57;;;;;;;4.95;4.45;;;4.80;99.90;;;;;;5009931;28;20049;-93
2022/05/31 01:22:38;;;;;;;4.85;4.45;;;4.80;99.90;;;;;;5018166;28;20028;-92
2022/05/31 01:25:10;;;;;;;4.80;4.40;;;4.80;99.90;;;;;;4987680;28;20506;-92
2022/05/31 01:27:57;;;;;;;4.68;4.28;;;4.80;99.90;;;;;;5016114;28;20554;-92
2022/05/31 01:30:23;;;;;;;6.07;4.63;;;4.70;99.90;;;;;;5030665;28;20076;-90
2022/05/31 01:32:58;;;;;;;4.95;4.50;;;4.70;99.90;;;;;;5030904;28;20034;-93
2022/05/31 01:35:34;;;;;;;4.78;4.30;;;4.70;99.90;;;;;;5012479;28;20026;-92
2022/05/31 01:38:09;;;;;;;4.97;4.47;;;4.60;99.90;;;;;;5029030;28;20124;-93
2022/05/31 01:41:10;;;;;;;5.18;4.78;;;4.60;99.90;;;;;;5006853;28;21020;-93
2022/05/31 01:43:36;;;;;;;5.13;4.63;;;4.60;99.90;;;;;;5024308;28;20030;-92
2022/05/31 01:46:06;;;;;;;4.88;4.30;;;4.60;99.90;;;;;;5019088;28;20026;-93
2022/05/31 01:48:36;;;;;;;5.32;4.18;;;4.60;99.90;;;;;;5013732;28;20025;-92
2022/05/31 01:51:03;;;;;;;6.75;4.53;;;4.60;99.90;;;;;;5007708;28;20076;-92
2022/05/31 01:53:29;;;;;;;5.00;4.47;;;4.60;99.90;;;;;;5024676;28;20037;-93
2022/05/31 01:55:55;;;;;;;4.78;4.38;;;4.60;99.90;;;;;;5013185;28;20032;-92
2022/05/31 01:58:25;;;;;;;5.15;4.60;;;4.60;99.90;;;;;;5013529;28;20022;-93
2022/05/31 02:00:51;;;;;;;5.18;4.72;;;4.50;99.90;;;;;;5030962;28;20037;-93
2022/05/31 02:03:19;;;;;;;5.03;4.53;;;4.50;99.90;;;;;;5024917;28;20026;-93
2022/05/31 02:05:51;;;;;;;4.70;4.30;;;4.50;99.90;;;;;;5007709;28;20053;-92
2022/05/31 02:08:19;;;;;;;4.78;4.38;;;4.50;99.90;;;;;;5003453;28;20148;-92
2022/05/31 02:10:47;;;;;;;7.60;4.50;;;4.40;99.90;;;;;;5007244;28;20041;-92
2022/05/31 02:13:13;;;;;;;4.25;3.90;;;4.40;99.90;;;;;;5028055;28;20029;-92
2022/05/31 02:15:40;;;;;;;5.72;4.05;;;4.40;99.90;;;;;;5012312;28;20037;-92
2022/05/31 02:18:06;;;;;;;5.38;4.40;;;4.30;99.90;;;;;;5000386;28;20030;-93
2022/05/31 02:20:32;;;;;;;4.97;4.32;;;4.30;99.90;;;;;;5005012;28;20040;-93
2022/05/31 02:22:57;;;;;;;4.30;3.90;;;4.30;99.90;;;;;;5013332;28;20018;-91
2022/05/31 02:25:23;;;;;;;4.57;4.18;;;4.20;99.90;;;;;;5024562;28;20531;-89
2022/05/31 02:27:48;;;;;;;4.93;4.43;;;4.20;99.90;;;;;;5015028;28;20058;-93
2022/05/31 02:30:14;;;;;;;4.40;4.00;;;4.20;99.90;;;;;;5025160;28;20547;-92
2022/05/31 02:32:40;;;;;;;4.75;4.35;;;4.20;99.90;;;;;;5023333;28;20033;-92
2022/05/31 02:35:09;;;;;;;5.68;5.18;;;4.10;99.90;;;;;;5025665;28;20018;-91
2022/05/31 02:37:35;;;;;;;5.80;5.15;;;4.10;99.90;;;;;;5026331;28;20021;-92
2022/05/31 02:40:01;;;;;;;5.35;4.85;;;4.10;99.90;;;;;;5026746;28;20022;-92
2022/05/31 02:42:27;;;;;;;5.18;4.68;;;4.10;99.90;;;;;;5005851;28;20036;-92
2022/05/31 02:44:52;;;;;;;4.65;4.25;;;4.10;99.90;;;;;;5002177;28;20033;-93
2022/05/31 02:47:19;;;;;;;4.95;4.50;;;4.00;99.90;;;;;;5030312;28;20027;-92
2022/05/31 02:49:45;;;;;;;4.53;4.13;;;4.00;99.90;;;;;;5007739;28;20144;-92
2022/05/31 02:52:11;;;;;;;5.75;5.10;;;4.00;99.90;;;;;;5002309;28;20018;-93
2022/05/31 02:54:37;;;;;;;6.15;5.65;;;3.90;99.90;;;;;;5005361;28;20026;-92
2022/05/31 02:57:04;;;;;;;4.65;3.85;;;3.90;99.90;;;;;;5007901;28;20104;-92
2022/05/31 02:59:29;;;;;;;5.07;4.25;;;3.90;99.90;;;;;;5019239;28;20497;-92
2022/05/31 03:01:55;;;;;;;4.35;3.95;;;3.80;99.90;;;;;;5008662;28;20029;-92
2022/05/31 03:04:21;;;;;;;4.90;4.50;;;3.80;99.90;;;;;;5013897;28;20021;-92
2022/05/31 03:06:47;;;;;;;4.63;4.00;;;3.80;99.90;;;;;;5018475;28;20024;-92
2022/05/31 03:09:13;;;;;;;4.68;4.28;;;3.70;99.90;;;;;;5000032;28;20022;-92
2022/05/31 03:11:51;;;;;;;4.93;4.43;;;3.70;99.90;;;;;;5027464;28;20021;-92
2022/05/31 03:14:26;;;;;;;4.28;3.85;;;3.70;99.90;;;;;;5020569;28;20481;-91
2022/05/31 03:17:00;;;;;;;4.63;4.20;;;3.70;99.90;;;;;;5014575;28;20548;-91
2022/05/31 03:19:31;;;;;;;4.00;3.60;;;3.70;99.90;;;;;;5019566;28;20053;-92
2022/05/31 03:22:11;;;;;;;5.30;4.07;;;3.60;99.90;;;;;;5007933;28;20021;-91
2022/05/31 03:24:52;;;;;;;4.05;3.65;;;3.60;99.90;;;;;;5033017;28;20029;-92
2022/05/31 03:27:17;;;;;;;5.03;4.05;;;3.60;99.90;;;;;;5014340;28;20034;-92
2022/05/31 03:29:46;;;;;;;4.68;3.88;;;3.60;99.90;;;;;;5008605;28;20045;-92
2022/05/31 03:32:14;;;;;;;7.93;4.15;;;3.60;99.90;;;;;;5018245;28;20080;-92
2022/05/31 03:34:40;;;;;;;5.07;4.57;;;3.60;99.90;;;;;;5002810;28;20139;-92
2022/05/31 03:37:06;;;;;;;5.50;4.57;;;3.60;99.90;;;;;;5024419;28;20046;-92
2022/05/31 03:39:31;;;;;;;5.35;4.55;;;3.70;99.90;;;;;;5012163;28;20040;-92
2022/05/31 03:41:57;;;;;;;5.95;4.47;;;3.70;99.90;;;;;;5017558;28;20026;-92
2022/05/31 03:44:23;;;;;;;6.22;3.92;;;3.70;99.90;;;;;;5020746;28;20021;-91
2022/05/31 03:46:48;;;;;;;6.05;4.15;;;3.70;99.90;;;;;;5016037;28;20470;-91
2022/05/31 03:49:15;;;;;;;3.92;3.63;;;3.70;99.90;;;;;;5018778;28;20018;-92
2022/05/31 03:51:41;;;;;;;5.18;4.40;;;3.70;99.90;;;;;;5001654;28;20026;-93
2022/05/31 03:54:06;;;;;;;6.45;4.45;;;3.80;99.90;;;;;;5008487;28;20554;-92
2022/05/31 03:56:35;;;;;;;3.80;3.40;;;3.80;99.90;;;;;;5001126;28;20436;-91
2022/05/31 03:59:00;;;;;;;4.07;3.78;;;3.80;99.90;;;;;;5008706;28;20173;-91
2022/05/31 04:01:26;;;;;;;4.50;4.05;;;3.90;99.90;;;;;;5024183;28;20481;-91
2022/05/31 04:03:52;;;;;;;4.80;3.50;;;3.90;99.90;;;;;;5022097;28;20064;-90
2022/05/31 04:06:18;;;;;;;5.72;4.20;;;3.90;99.90;;;;;;5031710;28;20029;-92
2022/05/31 04:08:44;;;;;;;4.22;3.83;;;4.00;99.90;;;;;;5008722;28;20026;-92
2022/05/31 04:11:09;;;;;;;5.85;3.90;;;4.00;99.90;;;;;;4997679;28;20037;-92
2022/05/31 04:13:35;;;;;;;3.78;3.33;;;4.10;99.90;;;;;;5007205;28;20444;-92
2022/05/31 04:16:10;;;;;;;4.40;4.00;;;4.20;99.90;;;;;;5000223;28;20053;-92
2022/05/31 04:18:37;;;;;;;3.83;3.42;;;4.20;99.90;;;;;;5024010;28;20026;-92
2022/05/31 04:21:05;;;;;;;5.32;4.43;;;4.30;99.90;;;;;;5028931;28;20504;-92
2022/05/31 04:26:16;;;;;;;9.63;4.18;;;4.40;99.90;;;;;;5019570;28;20070;-92
2022/05/31 04:28:41;;;;;;;4.47;3.58;;;4.50;99.90;;;;;;5027314;28;20061;-92
2022/05/31 04:31:07;;;;;;;4.50;3.90;;;4.60;99.90;;;;;;5011366;28;20025;-92
2022/05/31 04:33:33;;;;;;;4.65;4.25;;;4.70;99.90;;;;;;5025950;28;20040;-92
2022/05/31 04:36:08;;;;;;;4.95;3.88;;;4.80;99.90;;;;;;5010428;28;20033;-91
2022/05/31 04:38:35;;;;;;;4.25;3.72;;;4.90;99.90;;;;;;5024157;28;20075;-92
2022/05/31 04:41:01;;;;;;;5.55;3.28;;;5.00;99.90;;;;;;5024591;28;20092;-92
2022/05/31 04:43:26;;;;;;;4.90;4.22;;;5.00;99.90;;;;;;5007760;28;20565;-93
2022/05/31 04:45:52;;;;;;;3.83;3.42;;;5.10;99.90;;;;;;5026354;28;20033;-89
2022/05/31 04:48:18;;;;;;;3.92;3.53;;;5.20;99.90;;;;;;5010567;28;20105;-93
2022/05/31 04:50:44;;;;;;;5.63;3.65;;;5.40;99.90;;;;;;5015298;28;20036;-91
2022/05/31 04:53:09;;;;;;;3.88;3.58;;;5.50;99.90;;;;;;5006314;28;20272;-93
2022/05/31 04:55:35;;;;;;;4.25;3.33;;;5.60;99.90;;;;;;5012987;28;20482;-93
2022/05/31 04:58:00;;;;;;;4.15;3.83;;;5.70;99.90;;;;;;5026098;28;20029;-93
2022/05/31 05:00:26;;;;;;;4.50;3.22;;;5.90;99.90;;;;;;5013452;28;20030;-92
2022/05/31 05:02:52;;;;;;;3.85;3.35;;;6.20;99.90;;;;;;5011422;28;20030;-91
2022/05/31 05:05:17;;;;;;;4.65;3.15;;;6.70;99.90;;;;;;4996580;28;20076;-92
2022/05/31 05:07:44;;;;;;;3.78;2.30;;;7.70;99.90;;;;;;5012060;28;20396;-93
2022/05/31 05:10:10;;;;;;;2.13;1.90;;;9.20;99.90;;;;;;5031313;28;20030;-94
2022/05/31 05:12:36;;;;;;;1.88;1.77;;;10.60;99.90;;;;;;5013359;28;20087;-93
2022/05/31 05:15:02;;;;;;;1.77;1.67;;;11.60;99.90;;;;;;5008683;28;20030;-93
2022/05/31 05:17:28;;;;;;;3.88;1.65;;;12.70;99.90;;;;;;5011720;28;20033;-93
2022/05/31 05:19:54;;;;;;;1.70;1.60;;;13.80;99.90;;;;;;5013049;28;20416;-92
2022/05/31 05:22:19;;;;;;;1.67;1.58;;;14.50;99.90;;;;;;5022104;28;20026;-91
2022/05/31 05:24:45;;;;;;;2.03;1.50;;;15.20;99.90;;;;;;5018822;28;20099;-94
2022/05/31 05:27:11;;;;;;;1.60;1.50;;;16.20;99.90;;;;;;5032324;28;20068;-93
2022/05/31 05:32:20;;;;;;;2.30;1.90;;;18.40;98.30;;;;;;5024218;28;20516;-94
2022/05/31 05:34:52;;;;;;;1.70;1.60;;;19.10;81.80;;;;;;5030038;28;20037;-94
2022/05/31 05:37:18;;;;;;;1.83;1.40;;;19.10;80.50;;;;;;5025816;28;20025;-94
2022/05/31 05:39:45;;;;;;;2.28;1.77;;;18.50;82.50;;;;;;5018854;28;20030;-94
2022/05/31 05:42:11;;;;;;;1.75;1.55;;;17.80;83.30;;;;;;5016829;28;20026;-94
2022/05/31 05:44:37;;;;;;;2.13;1.90;;;16.80;95.90;;;;;;5008630;28;20021;-93
2022/05/31 05:47:06;;;;;;;2.33;1.80;;;15.60;99.90;;;;;;5030726;28;20079;-92
2022/05/31 05:49:32;;;;;;;5.70;2.17;;;14.60;99.90;;;;;;5019083;28;21041;-93
2022/05/31 05:52:00;;;;;;;2.70;1.90;;;13.60;99.90;;;;;;5029606;28;20032;-91
2022/05/31 05:54:26;;;;;;;2.30;2.10;;;13.30;99.90;;;;;;5017104;28;20099;-93
2022/05/31 05:56:51;;;;;;;2.60;2.40;;;12.90;99.90;;;;;;5016430;28;20030;-92
2022/05/31 05:59:20;;;;;;;3.20;2.17;;;13.30;99.90;;;;;;5033443;28;20029;-92
2022/05/31 06:01:49;;;;;;;2.65;1.42;;;14.60;99.90;;;;;;5007468;28;20049;-93
2022/05/31 06:04:52;;;;;;;2.08;1.60;;;16.20;99.90;;;;;;5025433;28;20021;-92
2022/05/31 06:07:30;;;;;;;1.65;1.55;;;17.50;99.90;;;;;;5007745;28;20091;-93
2022/05/31 06:10:06;;;;;;;1.83;1.70;;;18.70;95.50;;;;;;5027669;28;20075;-93
2022/05/31 06:12:36;;;;;;;1.55;1.45;;;19.80;83.20;;;;;;5012142;28;20493;-94
2022/05/31 06:15:07;;;;;;;1.42;1.33;;;21.10;70.50;;;;;;5030905;28;20060;-94
2022/05/31 06:17:40;;;;;;;1.35;1.25;;;21.50;67.20;;;;;;5029808;28;20053;-94
2022/05/31 06:20:08;;;;;;;1.60;1.38;;;21.60;61.30;;;;;;5025720;28;20038;-93
2022/05/31 06:22:37;;;;;;;1.80;1.45;;;20.70;64.80;;;;;;5003180;28;20028;-93
2022/05/31 06:25:04;;;;;;;2.28;1.80;;;20.60;66.90;;;;;;5014726;28;20025;-92
2022/05/31 06:27:29;;;;;;;2.13;1.90;;;21.10;66.10;;;;;;5028477;28;20053;-92
2022/05/31 06:29:55;;;;;;;4.22;1.25;;;22.00;61.10;;;;;;5030668;28;20034;-92
2022/05/31 06:32:21;;;;;;;1.50;1.30;;;22.80;60.60;;;;;;5014168;28;20523;-93
2022/05/31 06:34:46;;;;;;;1.88;1.38;;;23.60;57.70;;;;;;5004612;28;20036;-92
2022/05/31 06:37:14;;;;;;;2.25;1.40;;;24.70;57.20;;;;;;5006720;28;20030;-92
2022/05/31 06:39:42;;;;;;;1.50;1.40;;;24.60;53.60;;;;;;5021296;28;20041;-93
2022/05/31 06:42:10;;;;;;;1.40;1.30;;;25.70;53.00;;;;;;5022935;28;20519;-93
2022/05/31 06:44:39;;;;;;;2.30;1.67;;;26.70;50.30;;;;;;5032176;28;20026;-93
2022/05/31 06:47:05;;;;;;;1.33;1.13;;;27.70;48.90;;;;;;5020480;28;20524;-92
2022/05/31 06:49:33;;;;;;;1.65;1.10;;;28.60;46.70;;;;;;5031745;28;20037;-92
2022/05/31 06:57:46;;;;;;;2.08;1.00;;;27.70;45.80;;;;;;4936353;29;20032;-92
2022/05/31 07:00:20;;;;;;;1.30;1.00;;;27.80;45.80;;;;;;4987511;28;20033;-93
2022/05/31 07:02:47;;;;;;;3.22;0.90;;;28.30;45.30;;;;;;5022820;28;20030;-93
2022/05/31 07:05:14;;;;;;;1.08;1.00;;;27.90;43.40;;;;;;5014303;28;20022;-94
2022/05/31 07:07:40;;;;;;;1.45;1.13;;;27.90;43.80;;;;;;5007172;28;20050;-94
2022/05/31 07:10:08;;;;;;;2.90;1.30;;;27.30;45.30;;;;;;5001813;28;20026;-92
2022/05/31 07:12:34;;;;;;;1.10;0.80;;;27.20;45.10;;;;;;5024622;28;20042;-93
2022/05/31 07:15:01;;;;;;;1.38;1.05;;;27.00;45.90;;;;;;5005724;28;20417;-93
2022/05/31 07:17:26;;;;;;;1.30;1.20;;;27.10;45.00;;;;;;5017690;28;20041;-93
2022/05/31 07:19:52;;;;;;;2.58;1.20;;;27.20;46.70;;;;;;5007694;28;20022;-92
2022/05/31 07:22:18;;;;;;;1.48;1.10;;;27.50;45.70;;;;;;5023328;28;20028;-95
2022/05/31 07:24:44;;;;;;;1.30;1.20;;;26.80;46.40;;;;;;5016962;28;20482;-93
2022/05/31 07:27:10;;;;;;;2.35;1.23;;;26.60;47.70;;;;;;5023786;28;20030;-94
2022/05/31 07:29:36;;;;;;;4.68;1.00;;;26.30;47.30;;;;;;5013972;28;20044;-94
2022/05/31 07:32:02;;;;;;;1.27;1.13;;;27.00;47.50;;;;;;5026587;28;20121;-93
2022/05/31 07:34:28;;;;;;;2.90;1.20;;;27.90;46.50;;;;;;5032961;28;20029;-93
2022/05/31 07:36:53;;;;;;;1.45;1.00;;;27.90;44.70;;;;;;5024563;28;20044;-94
2022/05/31 07:39:20;;;;;;;2.25;1.00;;;28.40;47.00;;;;;;5005016;28;20076;-93
2022/05/31 07:41:47;;;;;;;1.08;0.98;;;28.80;42.70;;;;;;5020830;28;20037;-93
2022/05/31 07:44:14;;;;;;;1.80;1.20;;;29.20;43.20;;;;;;5013925;28;20090;-93
2022/05/31 07:46:40;;;;;;;1.10;1.00;;;29.40;42.20;;;;;;5006993;28;20030;-94
2022/05/31 07:49:06;;;;;;;1.73;1.15;;;29.10;42.50;;;;;;5024311;28;20025;-94
2022/05/31 07:51:32;;;;;;;1.90;0.93;;;28.70;41.70;;;;;;5012968;28;20033;-93
2022/05/31 07:53:57;;;;;;;1.02;0.80;;;29.50;45.60;;;;;;5009194;28;20044;-92
2022/05/31 07:56:24;;;;;;;2.30;1.00;;;29.90;41.40;;;;;;5028761;28;20033;-93
2022/05/31 07:58:49;;;;;;;1.67;1.02;;;29.90;41.10;;;;;;5006145;28;20135;-94
2022/05/31 08:01:17;;;;;;;1.73;0.90;;;29.10;41.70;;;;;;5013158;28;20548;-94
2022/05/31 08:03:44;;;;;;;1.00;0.80;;;29.40;41.40;;;;;;5005033;28;20030;-93
2022/05/31 08:06:24;;;;;;;1.45;0.90;;;29.30;43.70;;;;;;5017924;28;20034;-93
2022/05/31 08:08:50;;;;;;;2.50;0.98;;;28.60;40.90;;;;;;5006280;28;20397;-93
2022/05/31 08:11:22;;;;;;;1.90;1.00;;;28.80;42.00;;;;;;5024313;28;20469;-95
2022/05/31 08:13:48;;;;;;;1.13;1.00;;;28.50;43.00;;;;;;5019806;28;20029;-94
2022/05/31 08:16:18;;;;;;;0.95;0.90;;;29.20;42.80;;;;;;5004249;28;20036;-94
2022/05/31 08:18:45;;;;;;;2.28;1.00;;;30.10;40.90;;;;;;5013490;28;20121;-93
2022/05/31 08:21:14;;;;;;;2.08;1.00;;;30.40;40.00;;;;;;5006746;28;20056;-93
2022/05/31 08:23:40;;;;;;;0.80;0.80;;;31.10;41.40;;;;;;5005730;28;20102;-93
2022/05/31 08:26:07;;;;;;;1.40;1.30;;;32.00;38.50;;;;;;5011748;28;20076;-94
2022/05/31 08:28:34;;;;;;;1.63;0.70;;;32.80;39.10;;;;;;5026242;28;20104;-94
2022/05/31 08:31:11;;;;;;;1.88;0.80;;;33.80;37.60;;;;;;5021385;28;20026;-93
2022/05/31 08:33:39;;;;;;;1.27;0.90;;;34.20;37.00;;;;;;5005034;28;20045;-93
2022/05/31 08:36:05;;;;;;;0.70;0.70;;;34.40;37.70;;;;;;5019577;28;20029;-93
2022/05/31 08:38:31;;;;;;;2.05;0.77;;;33.80;35.20;;;;;;5017580;28;20034;-94
2022/05/31 08:40:56;;;;;;;1.20;0.60;;;33.30;33.60;;;;;;5015122;28;20022;-93
2022/05/31 08:43:32;;;;;;;1.45;0.70;;;33.40;34.60;;;;;;5007301;28;20025;-93
2022/05/31 08:46:05;;;;;;;3.70;0.85;;;32.50;34.60;;;;;;5019169;28;20046;-92
2022/05/31 08:48:35;;;;;;;0.77;0.70;;;32.30;33.80;;;;;;5006160;28;20052;-92
2022/05/31 08:56:56;;;;;;;1.00;0.70;;;32.70;31.50;;;;;;5020541;28;20040;-92
2022/05/31 08:59:41;;;;;;;3.47;0.80;;;32.90;32.90;;;;;;5019543;28;20026;-93
2022/05/31 09:02:16;;;;;;;1.05;0.60;;;32.70;32.50;;;;;;5032295;28;20033;-92
2022/05/31 09:04:47;;;;;;;0.70;0.70;;;32.50;31.70;;;;;;5018184;28;20018;-94
2022/05/31 09:07:20;;;;;;;0.80;0.70;;;31.70;33.00;;;;;;5031087;28;20077;-93
2022/05/31 09:09:54;;;;;;;3.50;0.60;;;31.90;34.70;;;;;;5010694;28;20065;-93
2022/05/31 09:12:42;;;;;;;1.77;0.80;;;32.40;32.80;;;;;;5029922;28;20048;-92
2022/05/31 09:15:23;;;;;;;0.70;0.65;;;32.20;33.30;;;;;;5009207;28;20034;-93
2022/05/31 09:18:07;;;;;;;0.63;0.60;;;33.30;32.10;;;;;;5026927;28;20033;-93
2022/05/31 09:20:58;;;;;;;3.50;0.60;;;32.40;27.80;;;;;;5029871;28;20071;-93
2022/05/31 09:23:33;;;;;;;1.27;0.60;;;31.00;29.90;;;;;;5018836;28;20666;-93
2022/05/31 09:26:08;;;;;;;0.77;0.50;;;29.20;29.40;;;;;;5006597;28;20022;-92
2022/05/31 09:28:48;;;;;;;1.52;0.70;;;29.20;33.10;;;;;;5012843;28;20033;-93
2022/05/31 09:31:45;;;;;;;2.05;0.60;;;29.30;32.50;;;;;;5022049;28;20037;-94
2022/05/31 09:34:32;;;;;;;7.03;0.90;;;29.20;30.60;;;;;;4987490;28;20037;-94
2022/05/31 09:37:25;;;;;;;0.50;0.50;;;29.00;31.90;;;;;;5017422;28;20053;-92
2022/05/31 09:40:14;;;;;;;0.50;0.50;;;28.40;32.20;;;;;;4999739;28;20049;-94
2022/05/31 09:42:45;;;;;;;1.63;0.60;;;28.80;32.70;;;;;;5027976;28;20049;-93
2022/05/31 09:45:16;;;;;;;1.55;0.70;;;29.50;31.60;;;;;;5009024;28;20552;-94
2022/05/31 09:47:41;;;;;;;0.82;0.70;;;29.70;33.40;;;;;;5024510;28;20120;-92
2022/05/31 09:50:08;;;;;;;1.33;0.73;;;31.10;32.30;;;;;;5010458;28;20050;-93
2022/05/31 09:52:36;;;;;;;5.22;0.85;;;30.90;30.60;;;;;;5028054;28;20055;-93
2022/05/31 09:58:02;;;;;;;1.27;0.70;;;30.30;31.10;;;;;;5030120;28;20037;-93
2022/05/31 10:00:29;;;;;;;2.20;0.65;;;30.50;31.90;;;;;;5022860;28;20030;-92
2022/05/31 10:03:10;;;;;;;1.25;0.60;;;32.00;34.70;;;;;;5024219;28;20029;-92
2022/05/31 10:05:38;;;;;;;2.08;0.80;;;33.20;30.70;;;;;;5019544;28;20044;-94
2022/05/31 10:08:15;;;;;;;1.30;0.50;;;31.50;29.10;;;;;;5035701;28;20026;-90
2022/05/31 10:10:48;;;;;;;2.75;0.63;;;30.50;30.00;;;;;;5032611;28;20366;-93
2022/05/31 10:13:33;;;;;;;1.30;0.60;;;28.70;32.30;;;;;;5019144;28;20021;-94
2022/05/31 10:16:08;;;;;;;1.40;0.70;;;27.20;34.20;;;;;;5021088;28;20501;-93
2022/05/31 10:19:04;;;;;;;1.98;0.60;;;26.20;36.60;;;;;;5015709;28;20517;-93
2022/05/31 10:21:40;;;;;;;0.88;0.70;;;25.70;36.80;;;;;;5031266;28;20497;-94
2022/05/31 10:24:25;;;;;;;0.70;0.70;;;25.40;36.80;;;;;;4999967;28;20053;-92
2022/05/31 10:27:14;;;;;;;1.42;0.77;;;25.60;38.20;;;;;;5024863;28;20026;-94
2022/05/31 10:29:51;;;;;;;1.30;0.60;;;26.10;37.40;;;;;;5024236;28;20032;-91
2022/05/31 10:32:28;;;;;;;1.55;0.70;;;25.90;36.90;;;;;;5015758;28;20109;-93
2022/05/31 10:35:17;;;;;;;0.80;0.60;;;25.30;37.80;;;;;;5015233;28;20422;-93
2022/05/31 10:37:57;;;;;;;0.60;0.55;;;24.90;39.50;;;;;;5023367;28;20022;-92
2022/05/31 10:40:47;;;;;;;1.00;0.90;;;24.00;38.80;;;;;;5011223;28;20052;-94
2022/05/31 10:43:34;;;;;;;2.58;0.70;;;23.50;40.60;;;;;;5015387;28;20022;-91
2022/05/31 10:46:07;;;;;;;1.95;0.85;;;23.40;43.90;;;;;;5034231;28;20037;-92
2022/05/31 10:48:40;;;;;;;1.05;0.80;;;23.80;43.50;;;;;;5026298;28;20109;-93
2022/05/31 10:51:28;;;;;;;1.23;0.77;;;24.70;41.70;;;;;;5017884;28;20033;-93
2022/05/31 10:54:09;;;;;;;1.50;0.88;;;25.00;40.60;;;;;;5015848;28;20045;-91
2022/05/31 10:57:00;;;;;;;1.02;0.93;;;24.80;40.70;;;;;;5017644;28;20104;-93
2022/05/31 10:59:46;;;;;;;1.90;0.90;;;24.70;41.90;;;;;;5008876;28;20040;-93
2022/05/31 11:02:33;;;;;;;2.88;1.40;;;23.90;40.90;;;;;;5007247;28;20028;-92
2022/05/31 11:05:08;;;;;;;0.77;0.70;;;23.10;43.30;;;;;;5000757;28;20105;-92
2022/05/31 11:11:28;;;;;;;0.73;0.70;;;23.40;43.40;;;;;;5000511;28;20022;-93
2022/05/31 11:13:41;;;;;;;1.88;1.00;;;22.80;44.10;;;;;;5026876;28;20024;-92
2022/05/31 11:16:25;;;;;;;3.53;0.90;;;22.60;44.80;;;;;;5021520;28;20385;-92
2022/05/31 11:19:31;;;;;;;3.33;1.10;;;22.50;44.30;;;;;;5015416;28;20061;-93
2022/05/31 11:22:13;;;;;;;2.30;1.15;;;22.30;45.80;;;;;;4941200;28;20034;-92
2022/05/31 11:24:39;;;;;;;1.88;1.05;;;22.50;46.60;;;;;;5002577;28;20105;-94
2022/05/31 11:27:10;;;;;;;1.15;0.70;;;22.80;45.40;;;;;;5023190;28;20134;-93
2022/05/31 11:29:49;;;;;;;;;;;22.80;43.80;;;;;;5015133;28;20029;-92
2022/05/31 11:32:37;;;;;;;1.00;0.82;;;22.70;44.90;;;;;;5022788;28;19910;-92
2022/05/31 11:35:21;;;;;;;6.38;1.08;;;22.30;44.40;;;;;;5007458;28;20028;-91
2022/05/31 11:37:52;;;;;;;3.85;0.98;;;22.10;46.40;;;;;;5002967;28;20033;-92
2022/05/31 11:40:41;;;;;;;2.25;0.80;;;22.10;46.80;;;;;;5006251;28;20080;-92
2022/05/31 11:43:51;;;;;;;1.42;0.82;;;22.00;46.50;;;;;;5003924;28;20041;-91
2022/05/31 11:46:58;;;;;;;2.15;1.05;;;21.90;46.20;;;;;;5023162;28;20029;-91
2022/05/31 11:49:53;;;;;;;1.55;0.80;;;22.30;49.30;;;;;;5014205;28;20433;-90
2022/05/31 11:52:46;;;;;;;2.40;0.90;;;22.50;45.70;;;;;;5022965;28;20125;-92
2022/05/31 11:55:25;;;;;;;1.38;0.75;;;22.50;46.20;;;;;;5006299;28;20068;-92
2022/05/31 11:58:26;;;;;;;2.10;0.80;;;22.60;45.30;;;;;;5015358;28;20034;-93
2022/05/31 12:00:59;;;;;;;1.67;0.82;;;23.00;45.20;;;;;;5001353;28;20113;-92
2022/05/31 12:03:43;;;;;;;1.65;1.10;;;22.80;44.70;;;;;;5025411;28;20036;-91
2022/05/31 12:06:37;;;;;;;1.25;0.80;;;22.60;43.40;;;;;;5021450;28;20033;-93
2022/05/31 12:09:16;;;;;;;1.70;0.85;;;22.40;45.80;;;;;;4997365;28;20037;-93
2022/05/31 12:12:15;;;;;;;1.10;0.90;;;22.40;44.20;;;;;;5027280;28;20056;-92
2022/05/31 12:14:47;;;;;;;2.35;1.00;;;22.70;44.00;;;;;;5001094;28;20038;-91
2022/05/31 12:17:13;;;;;;;1.60;0.80;;;23.10;44.30;;;;;;5012971;28;20022;-91
2022/05/31 12:19:44;;;;;;;1.98;0.85;;;23.40;44.10;;;;;;5001113;28;20069;-90
2022/05/31 12:22:32;;;;;;;;;;;23.90;43.70;;;;;;5019681;28;20021;-92
2022/05/31 12:25:13;;;;;;;0.65;0.60;;;23.90;43.60;;;;;;5010747;28;19917;-93
2022/05/31 12:27:42;;;;;;;;;;;24.80;42.30;;;;;;5008054;28;20544;-94
2022/05/31 12:30:16;;;;;;;1.02;0.70;;;25.70;43.90;;;;;;5024207;28;19913;-92
2022/05/31 12:32:45;;;;;;;1.80;0.90;;;26.50;41.80;;;;;;5009384;28;20030;-92
2022/05/31 12:35:31;;;;;;;1.48;0.70;;;26.60;39.30;;;;;;5022021;28;20022;-92
2022/05/31 12:38:02;;;;;;;2.00;0.93;;;26.20;38.80;;;;;;5023390;28;20072;-91
2022/05/31 12:40:34;;;;;;;4.10;0.80;;;25.50;39.60;;;;;;5028316;28;20036;-92
2022/05/31 12:43:02;;;;;;;1.40;0.82;;;25.30;40.50;;;;;;4995113;28;20034;-90
2022/05/31 12:45:33;;;;;;;1.25;0.80;;;25.30;42.00;;;;;;4995832;28;20038;-92
2022/05/31 12:48:12;;;;;;;1.45;0.70;;;25.80;41.80;;;;;;5001954;28;20636;-90
2022/05/31 12:50:51;;;;;;;1.35;0.80;;;26.30;40.40;;;;;;5017332;28;20440;-91
2022/05/31 12:53:23;;;;;;;2.25;0.70;;;26.30;42.00;;;;;;4999553;28;20018;-92
2022/05/31 12:55:53;;;;;;;1.35;0.80;;;26.70;41.10;;;;;;5005122;28;20577;-92
2022/05/31 12:58:35;;;;;;;2.17;0.82;;;26.10;38.20;;;;;;5027429;28;20555;-92
2022/05/31 13:01:06;;;;;;;2.05;0.80;;;24.60;40.30;;;;;;5021407;28;20048;-92
2022/05/31 13:03:34;;;;;;;1.13;0.80;;;23.40;42.70;;;;;;5024553;28;20158;-91
2022/05/31 13:06:16;;;;;;;1.02;0.70;;;23.30;45.70;;;;;;5009375;28;20030;-92
2022/05/31 13:08:51;;;;;;;1.30;0.88;;;23.60;46.40;;;;;;5026551;28;20029;-92
2022/05/31 13:20:19;;;;;;;1.42;0.75;;;22.40;48.40;;;;;;5012555;28;20041;-91
2022/05/31 13:22:49;;;;;;;1.38;0.70;;;22.60;48.40;;;;;;5025647;28;20034;-91
2022/05/31 13:25:21;;;;;;;2.33;0.90;;;22.70;47.10;;;;;;5018257;28;20116;-91
2022/05/31 13:27:56;;;;;;;2.13;0.80;;;23.00;48.40;;;;;;5024251;28;20064;-91
2022/05/31 13:30:24;;;;;;;1.30;0.80;;;23.30;47.50;;;;;;5025722;28;20029;-91
2022/05/31 13:32:50;;;;;;;1.65;0.88;;;23.50;45.60;;;;;;5007055;28;20401;-92
2022/05/31 13:35:26;;;;;;;1.83;0.90;;;23.30;45.70;;;;;;5020558;28;20037;-92
2022/05/31 13:38:06;;;;;;;1.67;1.02;;;23.40;48.10;;;;;;5021606;28;20570;-91
2022/05/31 13:40:55;;;;;;;1.50;0.85;;;23.40;47.30;;;;;;5013764;28;20026;-91
2022/05/31 13:43:40;;;;;;;2.05;0.80;;;23.50;48.70;;;;;;5009733;28;20030;-91
2022/05/31 13:46:17;;;;;;;1.50;0.88;;;22.90;46.60;;;;;;5016829;28;20073;-92
2022/05/31 13:48:48;;;;;;;1.30;0.80;;;22.70;47.20;;;;;;5028043;28;20501;-91